sensor_id;sensor_type;location;lat;lon;timestamp;pressure;altitude;pressure_sealevel;temperature;humidity
84770;BME280;75001;51.082;17.008;2023-12-20T00:01:11;101195.48;;;9.18;63.89
84770;BME280;75001;51.082;17.008;2023-12-20T00:16:39;101177.73;;;9.25;63.91
84770;BME280;75001;51.082;17.008;2023-12-20T00:32:08;101184.00;;;9.26;63.64
84770;BME280;75001;51.082;17.008;2023-12-20T00:47:36;101173.91;;;9.28;64.04
84770;BME280;75001;51.082;17.008;2023-12-20T01:03:05;101170.77;;;9.11;64.56
84770;BME280;75001;51.082;17.008;2023-12-20T01:18:33;101157.99;;;9.13;64.89
84770;BME280;75001;51.082;17.008;2023-12-20T01:34:01;101159.18;;;9.21;64.90
84770;BME280;75001;51.082;17.008;2023-12-20T01:49:30;101132.63;;;9.14;65.32
84770;BME280;75001;51.082;17.008;2023-12-20T02:04:58;101115.16;;;8.98;65.80
84770;BME280;75001;51.082;17.008;2023-12-20T02:20:27;101105.31;;;9.18;65.60
84770;BME280;75001;51.082;17.008;2023-12-20T02:35:55;101089.66;;;9.21;65.30
84770;BME280;75001;51.082;17.008;2023-12-20T02:51:24;101083.63;;;9.38;65.70
84770;BME280;75001;51.082;17.008;2023-12-20T03:06:52;101062.31;;;9.55;65.02
84770;BME280;75001;51.082;17.008;2023-12-20T03:22:20;101066.73;;;9.56;64.66
84770;BME280;75001;51.082;17.008;2023-12-20T03:37:48;101067.87;;;9.53;64.43
84770;BME280;75001;51.082;17.008;2023-12-20T03:53:17;101072.43;;;9.22;64.50
84770;BME280;75001;51.082;17.008;2023-12-20T04:08:45;101078.09;;;8.88;64.98
84770;BME280;75001;51.082;17.008;2023-12-20T04:24:13;101069.60;;;9.03;64.50
84770;BME280;75001;51.082;17.008;2023-12-20T04:39:41;101075.78;;;8.84;64.85
84770;BME280;75001;51.082;17.008;2023-12-20T04:55:10;101056.56;;;8.34;65.46
84770;BME280;75001;51.082;17.008;2023-12-20T05:10:38;101051.35;;;8.53;65.12
84770;BME280;75001;51.082;17.008;2023-12-20T05:26:06;101058.09;;;8.80;64.87
84770;BME280;75001;51.082;17.008;2023-12-20T05:41:34;101062.11;;;8.64;64.93
84770;BME280;75001;51.082;17.008;2023-12-20T05:57:03;101072.13;;;8.53;65.38
84770;BME280;75001;51.082;17.008;2023-12-20T06:12:31;101061.05;;;8.24;66.10
84770;BME280;75001;51.082;17.008;2023-12-20T06:27:59;101062.60;;;8.26;66.36
84770;BME280;75001;51.082;17.008;2023-12-20T06:43:27;101060.30;;;8.22;66.57
84770;BME280;75001;51.082;17.008;2023-12-20T06:58:55;101067.01;;;8.06;67.16
84770;BME280;75001;51.082;17.008;2023-12-20T07:14:24;101080.56;;;8.27;66.64
84770;BME280;75001;51.082;17.008;2023-12-20T07:29:52;101092.17;;;8.07;66.96
84770;BME280;75001;51.082;17.008;2023-12-20T07:45:20;101098.26;;;8.20;67.00
84770;BME280;75001;51.082;17.008;2023-12-20T08:00:49;101097.85;;;7.81;67.58
84770;BME280;75001;51.082;17.008;2023-12-20T08:16:17;101096.52;;;7.76;68.04
84770;BME280;75001;51.082;17.008;2023-12-20T08:31:46;101111.48;;;7.68;68.09
84770;BME280;75001;51.082;17.008;2023-12-20T08:47:14;101109.48;;;8.04;68.00
84770;BME280;75001;51.082;17.008;2023-12-20T09:02:42;101121.28;;;8.03;67.11
84770;BME280;75001;51.082;17.008;2023-12-20T09:18:10;101122.05;;;7.94;67.71
84770;BME280;75001;51.082;17.008;2023-12-20T09:33:39;101125.32;;;7.98;67.38
84770;BME280;75001;51.082;17.008;2023-12-20T09:49:07;101124.66;;;8.28;67.09
84770;BME280;75001;51.082;17.008;2023-12-20T10:04:35;101122.11;;;8.58;65.99
84770;BME280;75001;51.082;17.008;2023-12-20T10:20:05;101120.19;;;8.49;65.66
84770;BME280;75001;51.082;17.008;2023-12-20T10:35:32;101101.79;;;8.43;64.93
84770;BME280;75001;51.082;17.008;2023-12-20T10:51:01;101108.08;;;8.21;64.67
84770;BME280;75001;51.082;17.008;2023-12-20T11:21:57;101061.52;;;8.61;64.00
84770;BME280;75001;51.082;17.008;2023-12-20T11:37:30;101037.07;;;9.45;62.99
84770;BME280;75001;51.082;17.008;2023-12-20T11:53:00;101014.84;;;9.51;60.95
84770;BME280;75001;51.082;17.008;2023-12-20T12:08:22;100984.61;;;9.36;60.35
84770;BME280;75001;51.082;17.008;2023-12-20T12:23:51;100958.74;;;9.12;59.70
84770;BME280;75001;51.082;17.008;2023-12-20T12:39:19;100946.00;;;9.03;59.24
84770;BME280;75001;51.082;17.008;2023-12-20T12:54:49;100954.01;;;9.05;58.55
84770;BME280;75001;51.082;17.008;2023-12-20T13:10:21;100947.91;;;8.82;58.39
84770;BME280;75001;51.082;17.008;2023-12-20T13:25:44;100943.77;;;8.78;58.85
84770;BME280;75001;51.082;17.008;2023-12-20T13:41:12;100932.47;;;8.63;58.03
84770;BME280;75001;51.082;17.008;2023-12-20T13:56:41;100925.57;;;8.80;57.96
84770;BME280;75001;51.082;17.008;2023-12-20T14:12:14;100897.32;;;8.63;57.59
84770;BME280;75001;51.082;17.008;2023-12-20T14:28:43;100907.36;;;8.51;57.06
84770;BME280;75001;51.082;17.008;2023-12-20T14:44:09;100906.17;;;8.75;56.72
84770;BME280;75001;51.082;17.008;2023-12-20T14:59:37;100899.73;;;8.66;56.18
84770;BME280;75001;51.082;17.008;2023-12-20T15:15:07;100886.03;;;8.58;55.56
84770;BME280;75001;51.082;17.008;2023-12-20T15:30:40;100854.17;;;8.61;55.44
84770;BME280;75001;51.082;17.008;2023-12-20T15:46:03;100849.20;;;8.36;55.37
84770;BME280;75001;51.082;17.008;2023-12-20T16:01:31;100841.95;;;8.36;55.21
84770;BME280;75001;51.082;17.008;2023-12-20T16:16:59;100810.77;;;8.32;54.77
84770;BME280;75001;51.082;17.008;2023-12-20T16:32:27;100837.15;;;8.40;54.33
84770;BME280;75001;51.082;17.008;2023-12-20T16:47:55;100819.01;;;8.52;54.21
84770;BME280;75001;51.082;17.008;2023-12-20T17:03:24;100805.77;;;8.58;53.87
84770;BME280;75001;51.082;17.008;2023-12-20T17:18:52;100804.66;;;8.61;53.79
84770;BME280;75001;51.082;17.008;2023-12-20T17:34:21;100789.00;;;8.55;53.92
84770;BME280;75001;51.082;17.008;2023-12-20T17:49:49;100803.07;;;8.58;54.35
84770;BME280;75001;51.082;17.008;2023-12-20T18:05:22;100814.18;;;8.55;54.58
84770;BME280;75001;51.082;17.008;2023-12-20T18:20:46;100816.42;;;8.50;54.20
84770;BME280;75001;51.082;17.008;2023-12-20T18:36:17;100862.34;;;8.40;54.70
84770;BME280;75001;51.082;17.008;2023-12-20T18:51:43;100876.83;;;8.70;54.78
84770;BME280;75001;51.082;17.008;2023-12-20T19:07:12;100878.32;;;8.53;55.33
84770;BME280;75001;51.082;17.008;2023-12-20T19:22:40;100905.68;;;7.97;57.70
84770;BME280;75001;51.082;17.008;2023-12-20T19:38:09;100913.93;;;7.96;58.04
84770;BME280;75001;51.082;17.008;2023-12-20T19:53:37;100900.68;;;7.92;58.28
84770;BME280;75001;51.082;17.008;2023-12-20T20:09:05;100911.52;;;7.81;58.94
84770;BME280;75001;51.082;17.008;2023-12-20T20:24:34;100917.23;;;7.99;58.81
84770;BME280;75001;51.082;17.008;2023-12-20T20:40:03;100907.07;;;8.12;58.88
84770;BME280;75001;51.082;17.008;2023-12-20T20:55:30;100916.42;;;8.29;59.18
84770;BME280;75001;51.082;17.008;2023-12-20T21:10:58;100897.07;;;8.45;59.68
84770;BME280;75001;51.082;17.008;2023-12-20T21:26:27;100890.07;;;8.42;59.99
84770;BME280;75001;51.082;17.008;2023-12-20T21:41:55;100871.29;;;8.20;60.62
84770;BME280;75001;51.082;17.008;2023-12-20T21:57:23;100858.12;;;8.27;60.11
84770;BME280;75001;51.082;17.008;2023-12-20T22:12:52;100863.57;;;8.36;59.58
84770;BME280;75001;51.082;17.008;2023-12-20T22:28:20;100835.73;;;8.15;59.55
84770;BME280;75001;51.082;17.008;2023-12-20T22:43:49;100845.01;;;8.01;59.34
84770;BME280;75001;51.082;17.008;2023-12-20T22:59:17;100826.77;;;8.14;59.41
84770;BME280;75001;51.082;17.008;2023-12-20T23:14:46;100781.21;;;8.10;59.92
84770;BME280;75001;51.082;17.008;2023-12-20T23:30:14;100753.59;;;7.97;60.83
84770;BME280;75001;51.082;17.008;2023-12-20T23:45:42;100725.55;;;7.88;61.27
